sensor_id;sensor_type;location;lat;lon;timestamp;temperature;humidity
24103;DHT22;12278;53.058;9.028;2022-09-27T00:01:07;10.80;99.90
24103;DHT22;12278;53.058;9.028;2022-09-27T00:05:08;10.70;99.90
24103;DHT22;12278;53.058;9.028;2022-09-27T00:09:09;10.80;99.90
24103;DHT22;12278;53.058;9.028;2022-09-27T00:13:10;10.80;99.90
24103;DHT22;12278;53.058;9.028;2022-09-27T00:17:10;10.80;99.90
24103;DHT22;12278;53.058;9.028;2022-09-27T00:21:12;10.80;99.90
24103;DHT22;12278;53.058;9.028;2022-09-27T00:25:13;10.80;99.90
24103;DHT22;12278;53.058;9.028;2022-09-27T00:29:17;10.80;99.90
24103;DHT22;12278;53.058;9.028;2022-09-27T00:33:18;10.90;99.90
24103;DHT22;12278;53.058;9.028;2022-09-27T00:37:18;10.80;99.90
24103;DHT22;12278;53.058;9.028;2022-09-27T00:41:29;10.90;99.90
24103;DHT22;12278;53.058;9.028;2022-09-27T00:45:31;10.80;99.90
24103;DHT22;12278;53.058;9.028;2022-09-27T00:49:45;10.90;99.90
24103;DHT22;12278;53.058;9.028;2022-09-27T00:53:50;10.90;99.90
24103;DHT22;12278;53.058;9.028;2022-09-27T00:57:53;10.90;99.90
24103;DHT22;12278;53.058;9.028;2022-09-27T01:01:55;10.90;99.90
24103;DHT22;12278;53.058;9.028;2022-09-27T01:05:56;10.90;99.90
24103;DHT22;12278;53.058;9.028;2022-09-27T01:09:58;10.90;99.90
24103;DHT22;12278;53.058;9.028;2022-09-27T01:18:37;10.90;99.90
24103;DHT22;12278;53.058;9.028;2022-09-27T01:36:06;11.10;99.90
24103;DHT22;12278;53.058;9.028;2022-09-27T01:40:22;11.10;99.90
24103;DHT22;12278;53.058;9.028;2022-09-27T01:44:38;11.10;99.90
24103;DHT22;12278;53.058;9.028;2022-09-27T01:48:46;11.20;99.90
24103;DHT22;12278;53.058;9.028;2022-09-27T01:52:52;11.20;99.90
24103;DHT22;12278;53.058;9.028;2022-09-27T01:56:56;11.10;99.90
24103;DHT22;12278;53.058;9.028;2022-09-27T02:00:58;11.20;99.90
24103;DHT22;12278;53.058;9.028;2022-09-27T02:05:02;11.20;99.90
24103;DHT22;12278;53.058;9.028;2022-09-27T02:09:18;11.20;99.90
24103;DHT22;12278;53.058;9.028;2022-09-27T02:13:22;11.20;99.90
24103;DHT22;12278;53.058;9.028;2022-09-27T02:26:26;11.10;99.90
24103;DHT22;12278;53.058;9.028;2022-09-27T02:30:30;11.10;99.90
24103;DHT22;12278;53.058;9.028;2022-09-27T02:34:33;11.20;99.90
24103;DHT22;12278;53.058;9.028;2022-09-27T02:38:37;11.20;99.90
24103;DHT22;12278;53.058;9.028;2022-09-27T02:42:40;11.10;99.90
24103;DHT22;12278;53.058;9.028;2022-09-27T03:03:49;11.00;99.90
24103;DHT22;12278;53.058;9.028;2022-09-27T03:07:51;11.00;99.90
24103;DHT22;12278;53.058;9.028;2022-09-27T03:11:51;11.00;99.90
24103;DHT22;12278;53.058;9.028;2022-09-27T03:15:52;11.00;99.90
24103;DHT22;12278;53.058;9.028;2022-09-27T03:19:53;10.90;99.90
24103;DHT22;12278;53.058;9.028;2022-09-27T03:23:53;10.80;99.90
24103;DHT22;12278;53.058;9.028;2022-09-27T03:27:54;10.80;99.90
24103;DHT22;12278;53.058;9.028;2022-09-27T03:31:55;10.90;99.90
24103;DHT22;12278;53.058;9.028;2022-09-27T03:35:55;10.80;99.90
24103;DHT22;12278;53.058;9.028;2022-09-27T03:39:56;10.80;99.90
24103;DHT22;12278;53.058;9.028;2022-09-27T03:43:57;10.80;99.90
24103;DHT22;12278;53.058;9.028;2022-09-27T03:48:00;10.80;99.90
24103;DHT22;12278;53.058;9.028;2022-09-27T03:52:01;10.70;99.90
24103;DHT22;12278;53.058;9.028;2022-09-27T03:56:01;10.70;99.90
24103;DHT22;12278;53.058;9.028;2022-09-27T04:00:04;10.70;99.90
24103;DHT22;12278;53.058;9.028;2022-09-27T04:04:05;10.70;99.90
24103;DHT22;12278;53.058;9.028;2022-09-27T04:08:06;10.70;99.90
24103;DHT22;12278;53.058;9.028;2022-09-27T04:12:07;10.60;99.90
24103;DHT22;12278;53.058;9.028;2022-09-27T04:16:08;10.60;99.90
24103;DHT22;12278;53.058;9.028;2022-09-27T04:20:10;10.60;99.90
24103;DHT22;12278;53.058;9.028;2022-09-27T04:24:12;10.60;99.90
24103;DHT22;12278;53.058;9.028;2022-09-27T04:28:13;10.50;99.90
24103;DHT22;12278;53.058;9.028;2022-09-27T04:32:14;10.50;99.90
24103;DHT22;12278;53.058;9.028;2022-09-27T04:36:18;10.50;99.90
24103;DHT22;12278;53.058;9.028;2022-09-27T04:40:29;10.50;99.90
24103;DHT22;12278;53.058;9.028;2022-09-27T04:44:29;10.50;99.90
24103;DHT22;12278;53.058;9.028;2022-09-27T04:48:30;10.50;99.90
24103;DHT22;12278;53.058;9.028;2022-09-27T04:52:31;10.50;99.90
24103;DHT22;12278;53.058;9.028;2022-09-27T04:56:31;10.50;99.90
24103;DHT22;12278;53.058;9.028;2022-09-27T05:00:32;10.50;99.90
24103;DHT22;12278;53.058;9.028;2022-09-27T05:04:33;10.60;99.90
24103;DHT22;12278;53.058;9.028;2022-09-27T05:08:33;10.60;99.90
24103;DHT22;12278;53.058;9.028;2022-09-27T05:12:35;10.60;99.90
24103;DHT22;12278;53.058;9.028;2022-09-27T05:16:37;10.60;99.90
24103;DHT22;12278;53.058;9.028;2022-09-27T05:20:37;10.50;99.90
24103;DHT22;12278;53.058;9.028;2022-09-27T05:24:39;10.50;99.90
24103;DHT22;12278;53.058;9.028;2022-09-27T05:28:40;10.40;99.90
24103;DHT22;12278;53.058;9.028;2022-09-27T05:32:44;10.50;99.90
24103;DHT22;12278;53.058;9.028;2022-09-27T05:36:46;10.40;99.90
24103;DHT22;12278;53.058;9.028;2022-09-27T05:40:47;10.40;99.90
24103;DHT22;12278;53.058;9.028;2022-09-27T05:44:50;10.40;99.90
24103;DHT22;12278;53.058;9.028;2022-09-27T05:48:52;10.40;99.90
24103;DHT22;12278;53.058;9.028;2022-09-27T05:52:53;10.30;99.90
24103;DHT22;12278;53.058;9.028;2022-09-27T05:56:55;10.40;99.90
24103;DHT22;12278;53.058;9.028;2022-09-27T06:00:59;10.40;99.90
24103;DHT22;12278;53.058;9.028;2022-09-27T06:05:00;10.40;99.90
24103;DHT22;12278;53.058;9.028;2022-09-27T06:09:02;10.40;99.90
24103;DHT22;12278;53.058;9.028;2022-09-27T06:13:05;10.40;99.90
24103;DHT22;12278;53.058;9.028;2022-09-27T06:17:06;10.50;99.90
24103;DHT22;12278;53.058;9.028;2022-09-27T06:21:07;10.40;99.90
24103;DHT22;12278;53.058;9.028;2022-09-27T06:25:08;10.50;99.90
24103;DHT22;12278;53.058;9.028;2022-09-27T06:29:09;10.50;99.90
24103;DHT22;12278;53.058;9.028;2022-09-27T06:33:12;10.50;99.90
24103;DHT22;12278;53.058;9.028;2022-09-27T06:37:13;10.60;99.90
24103;DHT22;12278;53.058;9.028;2022-09-27T06:41:14;10.60;99.90
24103;DHT22;12278;53.058;9.028;2022-09-27T06:45:16;10.50;99.90
24103;DHT22;12278;53.058;9.028;2022-09-27T06:49:16;10.50;99.90
24103;DHT22;12278;53.058;9.028;2022-09-27T06:53:17;10.60;99.90
24103;DHT22;12278;53.058;9.028;2022-09-27T06:57:18;10.60;99.90
24103;DHT22;12278;53.058;9.028;2022-09-27T07:01:38;10.70;99.90
24103;DHT22;12278;53.058;9.028;2022-09-27T07:05:40;10.90;99.90
24103;DHT22;12278;53.058;9.028;2022-09-27T07:09:41;11.20;99.90
24103;DHT22;12278;53.058;9.028;2022-09-27T07:13:42;11.10;99.90
24103;DHT22;12278;53.058;9.028;2022-09-27T07:17:43;11.00;99.90
24103;DHT22;12278;53.058;9.028;2022-09-27T07:21:44;11.00;99.90
24103;DHT22;12278;53.058;9.028;2022-09-27T07:25:45;11.10;99.90
24103;DHT22;12278;53.058;9.028;2022-09-27T07:29:47;11.00;99.90
24103;DHT22;12278;53.058;9.028;2022-09-27T07:33:47;11.10;99.90
24103;DHT22;12278;53.058;9.028;2022-09-27T07:37:48;11.20;99.90
24103;DHT22;12278;53.058;9.028;2022-09-27T07:41:49;11.30;99.90
24103;DHT22;12278;53.058;9.028;2022-09-27T07:45:49;11.30;99.90
24103;DHT22;12278;53.058;9.028;2022-09-27T07:49:50;11.10;99.90
24103;DHT22;12278;53.058;9.028;2022-09-27T07:53:55;11.20;99.90
24103;DHT22;12278;53.058;9.028;2022-09-27T07:58:07;11.10;99.90
24103;DHT22;12278;53.058;9.028;2022-09-27T08:02:13;11.10;99.90
24103;DHT22;12278;53.058;9.028;2022-09-27T08:06:14;11.20;99.90
24103;DHT22;12278;53.058;9.028;2022-09-27T08:10:15;11.40;99.90
24103;DHT22;12278;53.058;9.028;2022-09-27T08:14:16;11.30;99.90
24103;DHT22;12278;53.058;9.028;2022-09-27T08:18:18;11.30;99.90
24103;DHT22;12278;53.058;9.028;2022-09-27T08:22:21;11.50;99.90
24103;DHT22;12278;53.058;9.028;2022-09-27T08:26:22;11.50;99.90
24103;DHT22;12278;53.058;9.028;2022-09-27T08:30:23;11.50;99.90
24103;DHT22;12278;53.058;9.028;2022-09-27T08:34:24;11.50;99.90
24103;DHT22;12278;53.058;9.028;2022-09-27T08:38:24;11.60;99.90
24103;DHT22;12278;53.058;9.028;2022-09-27T08:46:47;11.50;99.90
24103;DHT22;12278;53.058;9.028;2022-09-27T08:50:51;11.40;99.90
24103;DHT22;12278;53.058;9.028;2022-09-27T08:54:51;11.50;99.90
24103;DHT22;12278;53.058;9.028;2022-09-27T08:59:00;11.50;99.90
24103;DHT22;12278;53.058;9.028;2022-09-27T09:03:03;11.40;99.90
24103;DHT22;12278;53.058;9.028;2022-09-27T09:07:25;11.50;99.90
24103;DHT22;12278;53.058;9.028;2022-09-27T09:20:28;11.60;99.90
24103;DHT22;12278;53.058;9.028;2022-09-27T09:28:50;11.90;99.90
24103;DHT22;12278;53.058;9.028;2022-09-27T09:33:17;11.90;99.90
24103;DHT22;12278;53.058;9.028;2022-09-27T09:37:44;11.90;99.90
24103;DHT22;12278;53.058;9.028;2022-09-27T09:42:04;11.80;99.90
24103;DHT22;12278;53.058;9.028;2022-09-27T09:46:24;11.80;99.90
24103;DHT22;12278;53.058;9.028;2022-09-27T09:50:50;11.70;99.90
24103;DHT22;12278;53.058;9.028;2022-09-27T09:54:57;11.70;99.90
24103;DHT22;12278;53.058;9.028;2022-09-27T09:59:04;11.90;99.90
24103;DHT22;12278;53.058;9.028;2022-09-27T10:03:09;11.50;99.90
24103;DHT22;12278;53.058;9.028;2022-09-27T10:07:11;11.30;99.90
24103;DHT22;12278;53.058;9.028;2022-09-27T10:11:36;11.20;99.90
24103;DHT22;12278;53.058;9.028;2022-09-27T10:15:38;11.20;99.90
24103;DHT22;12278;53.058;9.028;2022-09-27T10:19:40;11.30;99.90
24103;DHT22;12278;53.058;9.028;2022-09-27T10:24:11;11.10;99.90
24103;DHT22;12278;53.058;9.028;2022-09-27T10:32:33;11.00;99.90
24103;DHT22;12278;53.058;9.028;2022-09-27T10:36:36;11.10;99.90
24103;DHT22;12278;53.058;9.028;2022-09-27T10:40:38;11.40;99.90
24103;DHT22;12278;53.058;9.028;2022-09-27T10:44:38;11.50;99.90
24103;DHT22;12278;53.058;9.028;2022-09-27T10:48:39;11.50;99.90
24103;DHT22;12278;53.058;9.028;2022-09-27T10:52:44;11.60;99.90
24103;DHT22;12278;53.058;9.028;2022-09-27T10:56:54;11.60;99.90
24103;DHT22;12278;53.058;9.028;2022-09-27T11:01:00;11.50;99.90
24103;DHT22;12278;53.058;9.028;2022-09-27T11:05:12;11.50;99.90
24103;DHT22;12278;53.058;9.028;2022-09-27T11:13:22;11.70;99.90
24103;DHT22;12278;53.058;9.028;2022-09-27T11:17:49;11.80;99.90
24103;DHT22;12278;53.058;9.028;2022-09-27T11:26:21;11.70;99.90
24103;DHT22;12278;53.058;9.028;2022-09-27T11:30:32;11.70;99.90
24103;DHT22;12278;53.058;9.028;2022-09-27T11:55:44;11.60;99.90
24103;DHT22;12278;53.058;9.028;2022-09-27T12:12:59;11.90;99.90
24103;DHT22;12278;53.058;9.028;2022-09-27T12:17:02;11.90;99.90
24103;DHT22;12278;53.058;9.028;2022-09-27T12:21:07;11.80;99.90
24103;DHT22;12278;53.058;9.028;2022-09-27T12:25:13;12.20;99.90
24103;DHT22;12278;53.058;9.028;2022-09-27T12:29:21;12.40;99.90
24103;DHT22;12278;53.058;9.028;2022-09-27T12:33:43;12.20;99.90
24103;DHT22;12278;53.058;9.028;2022-09-27T12:38:17;12.20;99.90
24103;DHT22;12278;53.058;9.028;2022-09-27T12:51:08;12.10;99.90
24103;DHT22;12278;53.058;9.028;2022-09-27T13:12:22;12.00;99.90
24103;DHT22;12278;53.058;9.028;2022-09-27T13:16:24;12.00;99.90
24103;DHT22;12278;53.058;9.028;2022-09-27T13:20:40;12.00;99.90
24103;DHT22;12278;53.058;9.028;2022-09-27T13:33:39;11.80;99.90
24103;DHT22;12278;53.058;9.028;2022-09-27T13:46:03;12.00;99.90
24103;DHT22;12278;53.058;9.028;2022-09-27T14:02:41;12.00;99.90
24103;DHT22;12278;53.058;9.028;2022-09-27T14:06:54;12.10;99.90
24103;DHT22;12278;53.058;9.028;2022-09-27T14:10:58;12.00;99.90
24103;DHT22;12278;53.058;9.028;2022-09-27T14:15:01;12.10;99.90
24103;DHT22;12278;53.058;9.028;2022-09-27T14:19:04;12.10;99.90
24103;DHT22;12278;53.058;9.028;2022-09-27T14:23:18;12.00;99.90
24103;DHT22;12278;53.058;9.028;2022-09-27T14:27:22;12.00;99.90
24103;DHT22;12278;53.058;9.028;2022-09-27T14:31:24;12.00;99.90
24103;DHT22;12278;53.058;9.028;2022-09-27T14:35:28;11.80;99.90
24103;DHT22;12278;53.058;9.028;2022-09-27T14:39:55;11.90;99.90
24103;DHT22;12278;53.058;9.028;2022-09-27T14:43:57;11.90;99.90
24103;DHT22;12278;53.058;9.028;2022-09-27T14:47:58;12.00;99.90
24103;DHT22;12278;53.058;9.028;2022-09-27T14:52:00;12.00;99.90
24103;DHT22;12278;53.058;9.028;2022-09-27T14:56:01;12.00;99.90
24103;DHT22;12278;53.058;9.028;2022-09-27T15:00:14;11.90;99.90
24103;DHT22;12278;53.058;9.028;2022-09-27T15:04:16;11.80;99.90
24103;DHT22;12278;53.058;9.028;2022-09-27T15:08:18;11.70;99.90
24103;DHT22;12278;53.058;9.028;2022-09-27T15:12:23;11.70;99.90
24103;DHT22;12278;53.058;9.028;2022-09-27T15:16:25;11.70;99.90
24103;DHT22;12278;53.058;9.028;2022-09-27T15:20:27;11.60;99.90
24103;DHT22;12278;53.058;9.028;2022-09-27T15:24:43;11.60;99.90
24103;DHT22;12278;53.058;9.028;2022-09-27T15:28:47;11.70;99.90
24103;DHT22;12278;53.058;9.028;2022-09-27T15:32:49;11.60;99.90
24103;DHT22;12278;53.058;9.028;2022-09-27T15:36:52;11.60;99.90
24103;DHT22;12278;53.058;9.028;2022-09-27T15:44:54;11.60;99.90
24103;DHT22;12278;53.058;9.028;2022-09-27T15:57:32;11.90;99.90
24103;DHT22;12278;53.058;9.028;2022-09-27T16:01:33;11.70;99.90
24103;DHT22;12278;53.058;9.028;2022-09-27T16:05:33;11.90;99.90
24103;DHT22;12278;53.058;9.028;2022-09-27T16:09:34;11.70;99.90
24103;DHT22;12278;53.058;9.028;2022-09-27T16:13:34;11.80;99.90
24103;DHT22;12278;53.058;9.028;2022-09-27T16:17:35;11.90;99.90
24103;DHT22;12278;53.058;9.028;2022-09-27T16:21:38;11.80;99.90
24103;DHT22;12278;53.058;9.028;2022-09-27T16:25:38;11.70;99.90
24103;DHT22;12278;53.058;9.028;2022-09-27T16:29:41;11.70;99.90
24103;DHT22;12278;53.058;9.028;2022-09-27T16:33:42;11.70;99.90
24103;DHT22;12278;53.058;9.028;2022-09-27T16:37:43;11.60;99.90
24103;DHT22;12278;53.058;9.028;2022-09-27T16:41:44;11.50;99.90
24103;DHT22;12278;53.058;9.028;2022-09-27T16:45:45;11.50;99.90
24103;DHT22;12278;53.058;9.028;2022-09-27T16:49:46;11.50;99.90
24103;DHT22;12278;53.058;9.028;2022-09-27T16:54:06;11.50;99.90
24103;DHT22;12278;53.058;9.028;2022-09-27T16:58:06;11.40;99.90
24103;DHT22;12278;53.058;9.028;2022-09-27T17:02:11;11.30;99.90
24103;DHT22;12278;53.058;9.028;2022-09-27T17:06:11;11.30;99.90
24103;DHT22;12278;53.058;9.028;2022-09-27T17:10:12;11.10;99.90
24103;DHT22;12278;53.058;9.028;2022-09-27T17:14:13;10.90;99.90
24103;DHT22;12278;53.058;9.028;2022-09-27T17:18:16;10.90;99.90
24103;DHT22;12278;53.058;9.028;2022-09-27T17:22:17;10.80;99.90
24103;DHT22;12278;53.058;9.028;2022-09-27T17:26:21;10.80;99.90
24103;DHT22;12278;53.058;9.028;2022-09-27T17:30:22;10.60;99.90
24103;DHT22;12278;53.058;9.028;2022-09-27T17:34:23;10.60;99.90
24103;DHT22;12278;53.058;9.028;2022-09-27T17:38:25;10.50;99.90
24103;DHT22;12278;53.058;9.028;2022-09-27T17:42:25;10.40;99.90
24103;DHT22;12278;53.058;9.028;2022-09-27T17:46:29;10.30;99.90
24103;DHT22;12278;53.058;9.028;2022-09-27T17:50:32;10.30;99.90
24103;DHT22;12278;53.058;9.028;2022-09-27T17:54:33;10.30;99.90
24103;DHT22;12278;53.058;9.028;2022-09-27T17:58:34;10.20;99.90
24103;DHT22;12278;53.058;9.028;2022-09-27T18:02:36;10.20;99.90
24103;DHT22;12278;53.058;9.028;2022-09-27T18:06:37;10.20;99.90
24103;DHT22;12278;53.058;9.028;2022-09-27T18:10:39;10.20;99.90
24103;DHT22;12278;53.058;9.028;2022-09-27T18:14:40;10.20;99.90
24103;DHT22;12278;53.058;9.028;2022-09-27T18:18:43;10.20;99.90
24103;DHT22;12278;53.058;9.028;2022-09-27T18:22:44;10.10;99.90
24103;DHT22;12278;53.058;9.028;2022-09-27T18:26:44;10.10;99.90
24103;DHT22;12278;53.058;9.028;2022-09-27T18:30:48;10.10;99.90
24103;DHT22;12278;53.058;9.028;2022-09-27T18:34:49;10.00;99.90
24103;DHT22;12278;53.058;9.028;2022-09-27T18:38:54;9.90;99.90
24103;DHT22;12278;53.058;9.028;2022-09-27T18:42:56;9.80;99.90
24103;DHT22;12278;53.058;9.028;2022-09-27T18:46:56;9.80;99.90
24103;DHT22;12278;53.058;9.028;2022-09-27T18:51:08;9.80;99.90
24103;DHT22;12278;53.058;9.028;2022-09-27T18:55:09;9.70;99.90
24103;DHT22;12278;53.058;9.028;2022-09-27T18:59:10;9.70;99.90
24103;DHT22;12278;53.058;9.028;2022-09-27T19:03:13;9.60;99.90
24103;DHT22;12278;53.058;9.028;2022-09-27T19:07:16;9.60;99.90
24103;DHT22;12278;53.058;9.028;2022-09-27T19:11:17;9.50;99.90
24103;DHT22;12278;53.058;9.028;2022-09-27T19:15:18;9.50;99.90
24103;DHT22;12278;53.058;9.028;2022-09-27T19:19:19;9.40;99.90
24103;DHT22;12278;53.058;9.028;2022-09-27T19:23:20;9.40;99.90
24103;DHT22;12278;53.058;9.028;2022-09-27T19:27:22;9.40;99.90
24103;DHT22;12278;53.058;9.028;2022-09-27T19:31:25;9.40;99.90
24103;DHT22;12278;53.058;9.028;2022-09-27T19:35:26;9.40;99.90
24103;DHT22;12278;53.058;9.028;2022-09-27T19:39:26;9.40;99.90
24103;DHT22;12278;53.058;9.028;2022-09-27T19:43:27;9.40;99.90
24103;DHT22;12278;53.058;9.028;2022-09-27T19:47:30;9.30;99.90
24103;DHT22;12278;53.058;9.028;2022-09-27T19:51:30;9.30;99.90
24103;DHT22;12278;53.058;9.028;2022-09-27T19:55:32;9.30;99.90
24103;DHT22;12278;53.058;9.028;2022-09-27T19:59:33;9.20;99.90
24103;DHT22;12278;53.058;9.028;2022-09-27T20:03:36;9.20;99.90
24103;DHT22;12278;53.058;9.028;2022-09-27T20:07:37;9.10;99.90
24103;DHT22;12278;53.058;9.028;2022-09-27T20:11:38;9.10;99.90
24103;DHT22;12278;53.058;9.028;2022-09-27T20:15:39;9.10;99.90
24103;DHT22;12278;53.058;9.028;2022-09-27T20:19:39;9.10;99.90
24103;DHT22;12278;53.058;9.028;2022-09-27T20:23:41;9.00;99.90
24103;DHT22;12278;53.058;9.028;2022-09-27T20:27:42;9.10;99.90
24103;DHT22;12278;53.058;9.028;2022-09-27T20:31:42;9.10;99.90
24103;DHT22;12278;53.058;9.028;2022-09-27T20:35:53;9.00;99.90
24103;DHT22;12278;53.058;9.028;2022-09-27T20:39:53;9.00;99.90
24103;DHT22;12278;53.058;9.028;2022-09-27T20:43:56;8.90;99.90
24103;DHT22;12278;53.058;9.028;2022-09-27T20:47:57;8.80;99.90
24103;DHT22;12278;53.058;9.028;2022-09-27T20:51:57;8.80;99.90
24103;DHT22;12278;53.058;9.028;2022-09-27T20:55:59;8.80;99.90
24103;DHT22;12278;53.058;9.028;2022-09-27T21:00:02;8.80;99.90
24103;DHT22;12278;53.058;9.028;2022-09-27T21:04:04;8.80;99.90
24103;DHT22;12278;53.058;9.028;2022-09-27T21:08:04;8.80;99.90
24103;DHT22;12278;53.058;9.028;2022-09-27T21:12:05;8.80;99.90
24103;DHT22;12278;53.058;9.028;2022-09-27T21:16:08;8.70;99.90
24103;DHT22;12278;53.058;9.028;2022-09-27T21:20:09;8.70;99.90
24103;DHT22;12278;53.058;9.028;2022-09-27T21:24:10;8.70;99.90
24103;DHT22;12278;53.058;9.028;2022-09-27T21:28:11;8.70;99.90
24103;DHT22;12278;53.058;9.028;2022-09-27T21:32:11;8.70;99.90
24103;DHT22;12278;53.058;9.028;2022-09-27T21:36:12;8.70;99.90
24103;DHT22;12278;53.058;9.028;2022-09-27T21:40:13;8.70;99.90
24103;DHT22;12278;53.058;9.028;2022-09-27T21:44:14;8.70;99.90
24103;DHT22;12278;53.058;9.028;2022-09-27T21:48:14;8.70;99.90
24103;DHT22;12278;53.058;9.028;2022-09-27T21:52:15;8.70;99.90
24103;DHT22;12278;53.058;9.028;2022-09-27T21:56:16;8.70;99.90
24103;DHT22;12278;53.058;9.028;2022-09-27T22:00:17;8.60;99.90
24103;DHT22;12278;53.058;9.028;2022-09-27T22:04:18;8.60;99.90
24103;DHT22;12278;53.058;9.028;2022-09-27T22:08:18;8.60;99.90
24103;DHT22;12278;53.058;9.028;2022-09-27T22:12:19;8.50;99.90
24103;DHT22;12278;53.058;9.028;2022-09-27T22:16:21;8.50;99.90
24103;DHT22;12278;53.058;9.028;2022-09-27T22:20:22;8.50;99.90
24103;DHT22;12278;53.058;9.028;2022-09-27T22:24:23;8.50;99.90
24103;DHT22;12278;53.058;9.028;2022-09-27T22:28:24;8.50;99.90
24103;DHT22;12278;53.058;9.028;2022-09-27T22:32:25;8.50;99.90
24103;DHT22;12278;53.058;9.028;2022-09-27T22:36:26;8.50;99.90
24103;DHT22;12278;53.058;9.028;2022-09-27T22:40:29;8.50;99.90
24103;DHT22;12278;53.058;9.028;2022-09-27T22:44:30;8.40;99.90
24103;DHT22;12278;53.058;9.028;2022-09-27T22:48:32;8.50;99.90
24103;DHT22;12278;53.058;9.028;2022-09-27T22:52:33;8.40;99.90
24103;DHT22;12278;53.058;9.028;2022-09-27T22:56:34;8.30;99.90
24103;DHT22;12278;53.058;9.028;2022-09-27T23:00:36;8.30;99.90
24103;DHT22;12278;53.058;9.028;2022-09-27T23:04:37;8.30;99.90
24103;DHT22;12278;53.058;9.028;2022-09-27T23:08:38;8.30;99.90
24103;DHT22;12278;53.058;9.028;2022-09-27T23:12:39;8.20;99.90
24103;DHT22;12278;53.058;9.028;2022-09-27T23:16:40;8.20;99.90
24103;DHT22;12278;53.058;9.028;2022-09-27T23:20:41;8.10;99.90
24103;DHT22;12278;53.058;9.028;2022-09-27T23:24:41;8.10;99.90
24103;DHT22;12278;53.058;9.028;2022-09-27T23:28:42;8.10;99.90
24103;DHT22;12278;53.058;9.028;2022-09-27T23:32:43;8.00;99.90
24103;DHT22;12278;53.058;9.028;2022-09-27T23:36:45;8.00;99.90
24103;DHT22;12278;53.058;9.028;2022-09-27T23:40:45;8.00;99.90
24103;DHT22;12278;53.058;9.028;2022-09-27T23:44:47;8.00;99.90
24103;DHT22;12278;53.058;9.028;2022-09-27T23:48:48;7.90;99.90
24103;DHT22;12278;53.058;9.028;2022-09-27T23:52:49;7.80;99.90
24103;DHT22;12278;53.058;9.028;2022-09-27T23:56:49;7.80;99.90
